Time;durP1;ratioP1;P1;durP2;ratioP2;P2;SDS_P1;SDS_P2;PMS_P1;PMS_P2;Temp;Humidity;BMP_temperature;BMP_pressure;BME280_temperature;BME280_humidity;BME280_pressure;Samples;Min_cycle;Max_cycle;Signal;HPM_P1;HPM_P2
2023/04/17 00:01:38;;;;;;;;;;;;;;;11.73;92.28;99500.66;5038858;28;19973;-82
2023/04/17 00:04:04;;;;;;;;;;;;;;;11.68;92.92;99502.88;5038738;28;19921;-82
2023/04/17 00:06:32;;;;;;;;;;;;;;;11.59;93.48;99498.50;5025102;28;19925;-83
2023/04/17 00:08:58;;;;;;;;;;;;;;;11.39;95.69;99496.97;5042948;28;20296;-82
2023/04/17 00:11:23;;;;;;;;;;;;;;;11.39;95.75;99499.63;5039724;28;19932;-83
2023/04/17 00:13:48;;;;;;;;;;;;;;;11.28;97.44;99499.84;5042373;28;19971;-82
2023/04/17 00:16:14;;;;;;;;;;;;;;;10.98;100.00;99496.53;5041402;28;19960;-81
2023/04/17 00:18:39;;;;;;;;;;;;;;;10.95;100.00;99494.19;5042521;28;20396;-81
2023/04/17 00:21:06;;;;;;;;;;;;;;;10.73;100.00;99497.19;5048314;28;19972;-86
2023/04/17 00:23:31;;;;;;;;;;;;;;;10.47;100.00;99488.25;5043178;28;19952;-86
2023/04/17 00:25:57;;;;;;;;;;;;;;;10.45;100.00;99492.84;5053504;28;19998;-86
2023/04/17 00:28:22;;;;;;;;;;;;;;;10.39;100.00;99490.78;5044044;28;19921;-86
2023/04/17 00:30:48;;;;;;;;;;;;;;;10.38;100.00;99489.94;5021719;28;20429;-87
2023/04/17 00:33:13;;;;;;;;;;;;;;;10.48;100.00;99492.56;5037601;28;19917;-87
2023/04/17 00:35:38;;;;;;;;;;;;;;;10.55;100.00;99494.47;5046118;28;19928;-85
2023/04/17 00:38:04;;;;;;;;;;;;;;;10.60;100.00;99494.06;5038215;28;19925;-85
2023/04/17 00:40:30;;;;;;;;;;;;;;;10.70;100.00;99492.22;5038862;28;20015;-84
2023/04/17 00:42:59;;;;;;;;;;;;;;;10.74;100.00;99483.00;5042946;28;19948;-85
2023/04/17 00:45:24;;;;;;;;;;;;;;;10.77;100.00;99489.81;5040048;28;20345;-85
2023/04/17 00:47:50;;;;;;;;;;;;;;;10.82;100.00;99493.69;5039079;28;19938;-84
2023/04/17 00:50:15;;;;;;;;;;;;;;;10.82;100.00;99488.41;5042464;28;20032;-84
2023/04/17 00:52:41;;;;;;;;;;;;;;;10.81;100.00;99486.75;5042809;28;19917;-84
2023/04/17 00:55:07;;;;;;;;;;;;;;;10.77;100.00;99485.38;5044318;28;19921;-87
2023/04/17 00:57:33;;;;;;;;;;;;;;;10.78;100.00;99481.72;5024592;28;19928;-88
2023/04/17 00:59:58;;;;;;;;;;;;;;;10.85;100.00;99477.53;5047622;28;19905;-87
2023/04/17 01:02:24;;;;;;;;;;;;;;;10.90;100.00;99477.94;5065095;28;19965;-87
2023/04/17 01:04:49;;;;;;;;;;;;;;;10.84;100.00;99470.59;5060239;28;19929;-87
2023/04/17 01:07:15;;;;;;;;;;;;;;;10.86;100.00;99473.94;5007230;28;19920;-87
2023/04/17 01:09:40;;;;;;;;;;;;;;;10.86;100.00;99475.72;5029834;28;20348;-87
2023/04/17 01:12:16;;;;;;;;;;;;;;;10.83;100.00;99474.25;5042708;28;19923;-87
2023/04/17 01:14:41;;;;;;;;;;;;;;;10.89;100.00;99465.72;5047525;28;19981;-87
2023/04/17 01:17:09;;;;;;;;;;;;;;;10.85;100.00;99469.63;5049084;28;20448;-86
2023/04/17 01:19:34;;;;;;;;;;;;;;;10.78;100.00;99468.53;5028961;28;20043;-87
2023/04/17 01:22:00;;;;;;;;;;;;;;;10.73;100.00;99472.59;5029660;28;19960;-85
2023/04/17 01:24:25;;;;;;;;;;;;;;;10.62;100.00;99465.69;5040124;28;19956;-84
2023/04/17 01:26:51;;;;;;;;;;;;;;;10.56;100.00;99466.28;5027326;28;19925;-84
2023/04/17 01:29:18;;;;;;;;;;;;;;;10.41;100.00;99462.47;5036961;28;20024;-85
2023/04/17 01:31:43;;;;;;;;;;;;;;;10.31;100.00;99464.31;5042080;28;20003;-85
2023/04/17 01:34:09;;;;;;;;;;;;;;;10.27;100.00;99464.56;5042358;28;20332;-89
2023/04/17 01:36:34;;;;;;;;;;;;;;;10.27;100.00;99469.84;5044048;28;19948;-86
2023/04/17 01:38:59;;;;;;;;;;;;;;;10.20;100.00;99466.09;5021712;28;20364;-84
2023/04/17 01:41:25;;;;;;;;;;;;;;;10.12;100.00;99463.34;5027029;28;19920;-86
2023/04/17 01:43:50;;;;;;;;;;;;;;;10.19;100.00;99475.00;5024392;28;19921;-84
2023/04/17 01:46:16;;;;;;;;;;;;;;;10.18;100.00;99460.16;5024013;28;20472;-86
2023/04/17 01:48:41;;;;;;;;;;;;;;;10.03;100.00;99464.16;5024106;28;19921;-86
2023/04/17 01:51:07;;;;;;;;;;;;;;;9.92;100.00;99466.97;5024209;28;19922;-87
2023/04/17 01:53:33;;;;;;;;;;;;;;;9.98;100.00;99471.69;5043451;28;19925;-88
2023/04/17 01:56:02;;;;;;;;;;;;;;;9.94;100.00;99470.31;5043034;28;19921;-86
2023/04/17 01:58:28;;;;;;;;;;;;;;;9.90;100.00;99465.44;5009012;28;19925;-87
2023/04/17 02:00:53;;;;;;;;;;;;;;;9.78;100.00;99467.38;5027660;28;20250;-87
2023/04/17 02:03:19;;;;;;;;;;;;;;;9.62;100.00;99464.47;5047610;28;19929;-86
2023/04/17 02:05:45;;;;;;;;;;;;;;;9.61;100.00;99458.38;5022895;28;19920;-83
2023/04/17 02:08:11;;;;;;;;;;;;;;;9.51;100.00;99462.00;5042452;28;19921;-83
2023/04/17 02:10:36;;;;;;;;;;;;;;;9.54;100.00;99462.56;5041415;28;19975;-83
2023/04/17 02:13:01;;;;;;;;;;;;;;;9.62;100.00;99465.31;5040949;28;20110;-83
2023/04/17 02:15:27;;;;;;;;;;;;;;;9.67;100.00;99467.53;5040335;28;19920;-84
2023/04/17 02:17:52;;;;;;;;;;;;;;;9.78;100.00;99459.47;5039471;28;19920;-82
2023/04/17 02:20:18;;;;;;;;;;;;;;;9.80;100.00;99457.53;5041671;28;19920;-83
2023/04/17 02:22:43;;;;;;;;;;;;;;;9.80;100.00;99452.28;5044136;28;19924;-83
2023/04/17 02:25:08;;;;;;;;;;;;;;;9.77;100.00;99458.69;5041251;28;20020;-87
2023/04/17 02:27:34;;;;;;;;;;;;;;;9.80;100.00;99457.53;5050723;28;19921;-80
2023/04/17 02:29:59;;;;;;;;;;;;;;;9.79;100.00;99461.16;5043102;28;20019;-80
2023/04/17 02:32:25;;;;;;;;;;;;;;;9.66;100.00;99465.91;5036033;28;19922;-80
2023/04/17 02:34:51;;;;;;;;;;;;;;;9.50;100.00;99466.44;5024036;28;19921;-80
2023/04/17 02:37:17;;;;;;;;;;;;;;;8.87;100.00;99467.72;5038854;28;20374;-81
2023/04/17 02:39:42;;;;;;;;;;;;;;;8.53;100.00;99469.81;5039830;28;19920;-79
2023/04/17 02:42:09;;;;;;;;;;;;;;;8.41;100.00;99466.44;5040700;28;19921;-81
2023/04/17 02:44:34;;;;;;;;;;;;;;;8.46;100.00;99466.03;5043506;28;19921;-82
2023/04/17 02:47:00;;;;;;;;;;;;;;;8.53;100.00;99470.63;5038682;28;19948;-81
2023/04/17 02:49:28;;;;;;;;;;;;;;;8.53;100.00;99465.38;5023192;28;20374;-82
2023/04/17 02:51:55;;;;;;;;;;;;;;;8.54;100.00;99464.38;5040767;28;19921;-82
2023/04/17 02:54:20;;;;;;;;;;;;;;;8.28;100.00;99465.78;5039553;28;19974;-82
2023/04/17 02:56:46;;;;;;;;;;;;;;;8.17;100.00;99466.69;5021792;28;19921;-82
2023/04/17 02:59:12;;;;;;;;;;;;;;;8.10;100.00;99477.84;5041069;28;19964;-81
2023/04/17 03:01:39;;;;;;;;;;;;;;;8.03;100.00;99481.94;5041594;28;19932;-82
2023/04/17 03:04:05;;;;;;;;;;;;;;;7.96;100.00;99470.25;5022725;28;19920;-80
2023/04/17 03:06:30;;;;;;;;;;;;;;;8.10;100.00;99478.66;5008781;28;20444;-81
2023/04/17 03:08:56;;;;;;;;;;;;;;;8.20;100.00;99468.19;5036732;28;19970;-86
2023/04/17 03:11:22;;;;;;;;;;;;;;;8.31;100.00;99470.78;5034105;28;19934;-81
2023/04/17 03:13:47;;;;;;;;;;;;;;;8.39;100.00;99468.34;5021283;28;20407;-83
2023/04/17 03:16:12;;;;;;;;;;;;;;;8.48;100.00;99470.19;5041568;28;19927;-82
2023/04/17 03:18:42;;;;;;;;;;;;;;;8.59;100.00;99464.84;5028615;28;19921;-83
2023/04/17 03:21:08;;;;;;;;;;;;;;;8.56;100.00;99466.91;5041445;28;20062;-83
2023/04/17 03:23:33;;;;;;;;;;;;;;;8.64;100.00;99469.72;5042517;28;19976;-84
2023/04/17 03:25:59;;;;;;;;;;;;;;;8.68;100.00;99457.94;5041304;28;19925;-82
2023/04/17 03:28:25;;;;;;;;;;;;;;;8.60;100.00;99461.22;5038879;28;19947;-82
2023/04/17 03:30:50;;;;;;;;;;;;;;;8.54;100.00;99472.28;5048439;28;19921;-81
2023/04/17 03:33:16;;;;;;;;;;;;;;;8.39;100.00;99464.88;5044271;28;19951;-79
2023/04/17 03:35:42;;;;;;;;;;;;;;;8.41;100.00;99471.69;5023569;28;20016;-82
2023/04/17 03:38:08;;;;;;;;;;;;;;;8.27;100.00;99464.09;5040520;28;20031;-82
2023/04/17 03:40:33;;;;;;;;;;;;;;;8.36;100.00;99462.53;5041418;28;19957;-83
2023/04/17 03:42:59;;;;;;;;;;;;;;;8.43;100.00;99463.66;5041508;28;19960;-83
2023/04/17 03:45:25;;;;;;;;;;;;;;;8.40;100.00;99470.03;5040883;28;19967;-81
2023/04/17 03:47:50;;;;;;;;;;;;;;;8.40;100.00;99467.38;5027125;28;19920;-82
2023/04/17 03:50:16;;;;;;;;;;;;;;;8.36;100.00;99463.38;5020781;28;19927;-83
2023/04/17 03:52:51;;;;;;;;;;;;;;;8.38;100.00;99466.69;5023341;28;20270;-81
2023/04/17 03:55:16;;;;;;;;;;;;;;;8.39;100.00;99472.78;5036552;28;19929;-81
2023/04/17 03:57:43;;;;;;;;;;;;;;;8.36;100.00;99470.41;5037589;28;19920;-81
2023/04/17 04:00:09;;;;;;;;;;;;;;;8.34;100.00;99473.16;5039029;28;19935;-82
2023/04/17 04:02:43;;;;;;;;;;;;;;;8.30;100.00;99474.41;5042338;28;20376;-81
2023/04/17 04:05:09;;;;;;;;;;;;;;;8.23;100.00;99475.84;5038078;28;19933;-80
2023/04/17 04:07:36;;;;;;;;;;;;;;;8.24;100.00;99482.78;5024971;28;20404;-80
2023/04/17 04:10:02;;;;;;;;;;;;;;;8.11;100.00;99479.50;5034098;28;20287;-82
2023/04/17 04:12:28;;;;;;;;;;;;;;;7.88;100.00;99473.56;5007592;28;19971;-82
2023/04/17 04:14:53;;;;;;;;;;;;;;;7.65;100.00;99478.09;5041319;28;19975;-82
2023/04/17 04:17:18;;;;;;;;;;;;;;;7.67;100.00;99476.16;5026393;28;20003;-80
2023/04/17 04:19:45;;;;;;;;;;;;;;;7.58;100.00;99476.91;5038162;28;20332;-81
2023/04/17 04:22:12;;;;;;;;;;;;;;;7.54;100.00;99475.47;5024478;28;19921;-79
2023/04/17 04:24:43;;;;;;;;;;;;;;;7.46;100.00;99480.53;5022239;28;19920;-79
2023/04/17 04:27:12;;;;;;;;;;;;;;;7.43;100.00;99480.78;5026619;28;20376;-80
2023/04/17 04:29:37;;;;;;;;;;;;;;;7.50;100.00;99479.31;5024776;28;20290;-79
2023/04/17 04:32:08;;;;;;;;;;;;;;;7.32;100.00;99486.91;5041499;28;19920;-78
2023/04/17 04:34:37;;;;;;;;;;;;;;;7.29;100.00;99484.53;5029246;28;19936;-80
2023/04/17 04:37:02;;;;;;;;;;;;;;;7.22;100.00;99479.91;5025814;28;19921;-79
2023/04/17 04:39:42;;;;;;;;;;;;;;;7.27;100.00;99483.81;5025839;28;19920;-81
2023/04/17 04:42:11;;;;;;;;;;;;;;;7.35;100.00;99491.91;5042624;28;19921;-80
2023/04/17 04:44:52;;;;;;;;;;;;;;;7.37;100.00;99489.16;5044889;28;19927;-80
2023/04/17 04:47:18;;;;;;;;;;;;;;;7.44;100.00;99489.50;5021540;28;19921;-79
2023/04/17 04:49:46;;;;;;;;;;;;;;;7.40;100.00;99502.03;5028095;28;19935;-80
2023/04/17 04:52:15;;;;;;;;;;;;;;;7.41;100.00;99495.84;5025198;28;20034;-81
2023/04/17 04:54:40;;;;;;;;;;;;;;;7.36;100.00;99498.00;5044288;28;20007;-81
2023/04/17 04:57:06;;;;;;;;;;;;;;;7.30;100.00;99493.25;5040890;28;20377;-80
2023/04/17 04:59:32;;;;;;;;;;;;;;;7.06;100.00;99498.66;5030584;28;19921;-81
2023/04/17 05:02:21;;;;;;;;;;;;;;;6.69;100.00;99505.97;5037262;28;19917;-83
2023/04/17 05:04:46;;;;;;;;;;;;;;;6.76;100.00;99501.91;5037709;28;20015;-80
2023/04/17 05:07:12;;;;;;;;;;;;;;;6.70;100.00;99510.25;5044216;28;19917;-79
2023/04/17 05:09:41;;;;;;;;;;;;;;;6.87;100.00;99506.31;5027215;28;20008;-84
2023/04/17 05:12:07;;;;;;;;;;;;;;;6.94;100.00;99503.09;5017832;28;19960;-84
2023/04/17 05:14:33;;;;;;;;;;;;;;;7.15;100.00;99510.19;5040835;28;20439;-85
2023/04/17 05:17:00;;;;;;;;;;;;;;;7.30;100.00;99509.00;5048581;28;20427;-86
2023/04/17 05:19:26;;;;;;;;;;;;;;;7.40;100.00;99510.75;5015609;28;19979;-84
2023/04/17 05:21:59;;;;;;;;;;;;;;;7.52;100.00;99519.44;5043113;28;20360;-85
2023/04/17 05:24:26;;;;;;;;;;;;;;;7.60;100.00;99517.00;5035129;28;19931;-89
2023/04/17 05:26:52;;;;;;;;;;;;;;;7.76;100.00;99527.09;5038406;28;19953;-86
2023/04/17 05:29:17;;;;;;;;;;;;;;;7.87;100.00;99528.84;5023152;28;20447;-90
2023/04/17 05:31:43;;;;;;;;;;;;;;;7.77;100.00;99532.25;5026966;28;19920;-88
2023/04/17 05:34:21;;;;;;;;;;;;;;;7.77;100.00;99534.88;5022124;28;19955;-86
2023/04/17 05:36:47;;;;;;;;;;;;;;;7.60;100.00;99531.94;5019960;28;20011;-86
2023/04/17 05:39:13;;;;;;;;;;;;;;;7.49;100.00;99519.66;5030416;28;20054;-87
2023/04/17 05:41:38;;;;;;;;;;;;;;;7.59;100.00;99525.84;5045825;28;19988;-88
2023/04/17 05:44:03;;;;;;;;;;;;;;;7.64;100.00;99528.94;5026682;28;19925;-90
2023/04/17 05:46:29;;;;;;;;;;;;;;;7.57;100.00;99533.00;5010343;28;19925;-89
2023/04/17 05:48:55;;;;;;;;;;;;;;;7.67;100.00;99533.94;5031982;28;19921;-87
2023/04/17 05:51:21;;;;;;;;;;;;;;;7.78;100.00;99531.25;5028016;28;19925;-85
2023/04/17 05:53:47;;;;;;;;;;;;;;;7.94;100.00;99532.63;5058260;28;19932;-86
2023/04/17 05:56:13;;;;;;;;;;;;;;;8.06;100.00;99534.25;5043032;28;20004;-86
2023/04/17 05:58:38;;;;;;;;;;;;;;;8.22;100.00;99534.63;5057365;28;20029;-89
2023/04/17 06:01:05;;;;;;;;;;;;;;;8.29;100.00;99535.78;5041066;28;19916;-80
2023/04/17 06:03:32;;;;;;;;;;;;;;;8.46;100.00;99535.25;5044234;28;19917;-85
2023/04/17 06:06:25;;;;;;;;;;;;;;;8.48;100.00;99541.19;5046724;28;19933;-86
2023/04/17 06:08:52;;;;;;;;;;;;;;;8.51;100.00;99540.09;5026205;28;20055;-88
2023/04/17 06:11:20;;;;;;;;;;;;;;;8.57;100.00;99534.31;5028023;28;19924;-87
2023/04/17 06:13:46;;;;;;;;;;;;;;;8.72;100.00;99537.44;5044124;28;20050;-84
2023/04/17 06:16:13;;;;;;;;;;;;;;;8.86;100.00;99551.06;5043086;28;19932;-85
2023/04/17 06:18:40;;;;;;;;;;;;;;;8.98;100.00;99544.75;5041560;28;20284;-85
2023/04/17 06:21:07;;;;;;;;;;;;;;;9.11;100.00;99555.06;5027882;28;19991;-85
2023/04/17 06:23:32;;;;;;;;;;;;;;;9.12;100.00;99561.16;5042315;28;20815;-84
2023/04/17 06:25:58;;;;;;;;;;;;;;;9.19;100.00;99542.03;5044719;28;19956;-84
2023/04/17 06:28:23;;;;;;;;;;;;;;;9.27;100.00;99555.38;5045511;28;20478;-84
2023/04/17 06:30:51;;;;;;;;;;;;;;;9.47;100.00;99547.53;5039080;28;19928;-83
2023/04/17 06:33:17;;;;;;;;;;;;;;;9.58;100.00;99547.41;5020792;28;19947;-84
2023/04/17 06:35:43;;;;;;;;;;;;;;;9.61;100.00;99552.38;5047524;28;19924;-85
2023/04/17 06:38:16;;;;;;;;;;;;;;;9.77;100.00;99548.28;5019466;28;19933;-84
2023/04/17 06:40:42;;;;;;;;;;;;;;;9.88;100.00;99554.38;5037800;28;20098;-84
2023/04/17 06:43:08;;;;;;;;;;;;;;;10.04;100.00;99560.75;5024404;28;19975;-83
2023/04/17 06:45:37;;;;;;;;;;;;;;;10.25;100.00;99558.81;5037475;28;19922;-82
2023/04/17 06:48:04;;;;;;;;;;;;;;;10.38;100.00;99562.97;5041642;28;19931;-83
2023/04/17 06:50:30;;;;;;;;;;;;;;;10.54;100.00;99557.97;5040104;28;19956;-85
2023/04/17 06:52:55;;;;;;;;;;;;;;;10.68;100.00;99549.56;5041619;28;20119;-83
2023/04/17 06:55:21;;;;;;;;;;;;;;;10.75;100.00;99552.47;5049780;28;19928;-83
2023/04/17 06:57:46;;;;;;;;;;;;;;;10.76;100.00;99557.63;5048841;28;19985;-86
2023/04/17 07:00:12;;;;;;;;;;;;;;;10.82;100.00;99559.69;5056708;28;20012;-87
2023/04/17 07:02:37;;;;;;;;;;;;;;;10.95;100.00;99557.56;5043332;28;19920;-87
2023/04/17 07:05:05;;;;;;;;;;;;;;;11.13;100.00;99564.69;5044094;28;20015;-87
2023/04/17 07:07:33;;;;;;;;;;;;;;;11.25;100.00;99558.25;5040484;28;20017;-84
2023/04/17 07:09:58;;;;;;;;;;;;;;;11.29;100.00;99564.91;5046116;28;19944;-85
2023/04/17 07:12:24;;;;;;;;;;;;;;;11.39;100.00;99563.03;5045887;28;20408;-86
2023/04/17 07:14:49;;;;;;;;;;;;;;;11.53;100.00;99559.91;5050688;28;19925;-85
2023/04/17 07:17:15;;;;;;;;;;;;;;;11.66;100.00;99560.38;5054220;28;19980;-86
2023/04/17 07:19:41;;;;;;;;;;;;;;;11.76;100.00;99560.31;5058199;28;19932;-86
2023/04/17 07:22:06;;;;;;;;;;;;;;;11.90;100.00;99559.78;5058402;28;19921;-86
2023/04/17 07:24:33;;;;;;;;;;;;;;;11.92;100.00;99559.66;5061074;28;19935;-85
2023/04/17 07:27:00;;;;;;;;;;;;;;;12.03;100.00;99564.69;5039051;28;19960;-87
2023/04/17 07:29:26;;;;;;;;;;;;;;;12.03;100.00;99570.00;5060054;28;19989;-85
2023/04/17 07:31:51;;;;;;;;;;;;;;;12.16;100.00;99570.44;5033077;28;19917;-87
2023/04/17 07:34:16;;;;;;;;;;;;;;;12.23;100.00;99571.50;5048920;28;19932;-85
2023/04/17 07:36:42;;;;;;;;;;;;;;;12.27;100.00;99567.56;5049125;28;19921;-84
2023/04/17 07:39:08;;;;;;;;;;;;;;;12.38;100.00;99572.59;5047009;28;20016;-87
2023/04/17 07:41:33;;;;;;;;;;;;;;;12.56;100.00;99578.69;5039361;28;19983;-87
2023/04/17 07:44:02;;;;;;;;;;;;;;;12.75;100.00;99575.03;5040641;28;19924;-86
2023/04/17 07:46:27;;;;;;;;;;;;;;;12.95;100.00;99578.28;5021920;28;20274;-86
2023/04/17 07:48:53;;;;;;;;;;;;;;;13.14;100.00;99578.06;5040769;28;19928;-86
2023/04/17 07:51:18;;;;;;;;;;;;;;;13.28;98.92;99584.59;5039720;28;19921;-87
2023/04/17 07:53:44;;;;;;;;;;;;;;;13.40;97.61;99575.38;5042869;28;20300;-86
2023/04/17 07:56:09;;;;;;;;;;;;;;;13.50;96.84;99579.53;5040413;28;20304;-88
2023/04/17 07:58:34;;;;;;;;;;;;;;;13.61;96.55;99580.25;5039221;28;20027;-83
2023/04/17 08:01:02;;;;;;;;;;;;;;;13.74;95.88;99583.25;5039040;28;19958;-86
2023/04/17 08:03:28;;;;;;;;;;;;;;;13.77;94.49;99588.25;5041065;28;19970;-84
2023/04/17 08:05:53;;;;;;;;;;;;;;;13.81;94.05;99586.94;5039060;28;20281;-86
2023/04/17 08:08:19;;;;;;;;;;;;;;;13.88;93.58;99593.25;5042616;28;19928;-87
2023/04/17 08:10:44;;;;;;;;;;;;;;;13.98;93.82;99599.22;5038116;28;19924;-84
2023/04/17 08:13:10;;;;;;;;;;;;;;;14.10;93.84;99597.09;5039655;28;19936;-86
2023/04/17 08:15:39;;;;;;;;;;;;;;;14.18;92.99;99595.28;5032923;28;19955;-83
2023/04/17 08:18:06;;;;;;;;;;;;;;;14.20;92.89;99592.44;5038845;28;19929;-84
2023/04/17 08:20:32;;;;;;;;;;;;;;;14.29;92.23;99592.31;5041304;28;19937;-86
2023/04/17 08:22:58;;;;;;;;;;;;;;;14.32;91.15;99591.97;5016747;28;19921;-89
2023/04/17 08:25:24;;;;;;;;;;;;;;;14.37;90.68;99588.00;5043736;28;19975;-89
2023/04/17 08:27:49;;;;;;;;;;;;;;;14.38;90.17;99594.97;5038754;28;19920;-90
2023/04/17 08:30:16;;;;;;;;;;;;;;;14.39;88.57;99601.94;5057960;28;19920;-90
2023/04/17 08:32:45;;;;;;;;;;;;;;;14.41;88.06;99597.31;5035281;28;19921;-91
2023/04/17 08:35:11;;;;;;;;;;;;;;;14.42;88.74;99601.63;5023178;28;19936;-91
2023/04/17 08:37:37;;;;;;;;;;;;;;;14.46;82.98;99603.78;5041375;28;19921;-91
2023/04/17 08:40:07;;;;;;;;;;;;;;;14.49;80.75;99592.81;5042799;28;19920;-90
2023/04/17 08:42:33;;;;;;;;;;;;;;;14.57;81.12;99594.63;5030403;28;19927;-88
2023/04/17 08:45:02;;;;;;;;;;;;;;;14.69;80.59;99598.63;5040397;28;19947;-88
2023/04/17 08:47:27;;;;;;;;;;;;;;;14.77;79.07;99598.63;5039476;28;19959;-89
2023/04/17 08:49:54;;;;;;;;;;;;;;;14.86;79.63;99605.56;5042932;28;19925;-90
2023/04/17 08:52:20;;;;;;;;;;;;;;;14.90;79.17;99596.28;5038860;28;19928;-90
2023/04/17 08:54:46;;;;;;;;;;;;;;;14.93;79.16;99590.59;5039607;28;20421;-89
2023/04/17 08:57:11;;;;;;;;;;;;;;;14.96;78.99;99600.88;5037031;28;20467;-88
2023/04/17 08:59:36;;;;;;;;;;;;;;;15.05;78.53;99599.88;5039360;28;19925;-88
2023/04/17 09:02:03;;;;;;;;;;;;;;;15.07;78.60;99597.91;5036570;28;19928;-89
2023/04/17 09:04:36;;;;;;;;;;;;;;;15.14;77.86;99598.00;5042211;28;19921;-88
2023/04/17 09:07:02;;;;;;;;;;;;;;;15.20;77.75;99593.88;5038622;28;19928;-88
2023/04/17 09:09:44;;;;;;;;;;;;;;;15.27;78.09;99597.47;5041458;28;19961;-87
2023/04/17 09:12:10;;;;;;;;;;;;;;;15.28;77.91;99593.81;5027828;28;19932;-87
2023/04/17 09:14:35;;;;;;;;;;;;;;;15.35;76.83;99594.81;5040706;28;19921;-87
2023/04/17 09:17:01;;;;;;;;;;;;;;;15.46;76.22;99594.41;5044461;28;19966;-88
2023/04/17 09:19:26;;;;;;;;;;;;;;;15.53;71.00;99587.44;5049245;28;19947;-88
2023/04/17 09:21:52;;;;;;;;;;;;;;;15.60;70.14;99580.44;5057100;28;19988;-88
2023/04/17 09:24:30;;;;;;;;;;;;;;;15.68;70.96;99593.66;5055698;28;20464;-88
2023/04/17 09:27:16;;;;;;;;;;;;;;;15.77;65.79;99591.81;5043302;28;19968;-89
2023/04/17 09:30:01;;;;;;;;;;;;;;;15.85;62.96;99584.59;5045678;28;19929;-87
2023/04/17 09:32:27;;;;;;;;;;;;;;;15.91;62.35;99589.22;5018919;28;19943;-89
2023/04/17 09:34:53;;;;;;;;;;;;;;;16.01;62.00;99581.00;5042904;28;20273;-89
2023/04/17 09:37:22;;;;;;;;;;;;;;;16.10;60.18;99595.09;5041965;28;19932;-88
2023/04/17 09:39:58;;;;;;;;;;;;;;;16.10;59.38;99589.75;5039449;28;19921;-87
2023/04/17 09:42:23;;;;;;;;;;;;;;;16.18;59.56;99581.72;5032353;28;19924;-89
2023/04/17 09:44:49;;;;;;;;;;;;;;;16.23;59.04;99574.84;5018750;28;19928;-88
2023/04/17 09:47:16;;;;;;;;;;;;;;;16.28;59.08;99582.31;5050812;28;19921;-88
2023/04/17 09:49:43;;;;;;;;;;;;;;;16.33;56.04;99575.44;5039895;28;20301;-89
2023/04/17 09:52:09;;;;;;;;;;;;;;;16.37;54.22;99586.56;5045719;28;19925;-89
2023/04/17 09:54:38;;;;;;;;;;;;;;;16.46;52.94;99577.50;5024302;28;19924;-88
2023/04/17 09:57:07;;;;;;;;;;;;;;;16.49;51.31;99579.81;5043294;28;19921;-88
2023/04/17 09:59:33;;;;;;;;;;;;;;;16.54;52.67;99572.09;5048319;28;19920;-88
2023/04/17 10:02:00;;;;;;;;;;;;;;;16.60;52.24;99571.41;5044204;28;19927;-87
2023/04/17 10:04:25;;;;;;;;;;;;;;;16.65;51.69;99568.19;5043213;28;19970;-88
2023/04/17 10:06:51;;;;;;;;;;;;;;;16.70;50.87;99566.66;5032857;28;20118;-88
2023/04/17 10:09:16;;;;;;;;;;;;;;;16.75;48.43;99568.75;5063419;28;19993;-87
2023/04/17 10:11:43;;;;;;;;;;;;;;;16.77;47.33;99566.75;5048247;28;19925;-89
2023/04/17 10:14:30;;;;;;;;;;;;;;;16.82;48.64;99563.53;5041611;28;19917;-89
2023/04/17 10:16:55;;;;;;;;;;;;;;;16.86;46.82;99556.81;5018221;28;19925;-88
2023/04/17 10:19:30;;;;;;;;;;;;;;;16.86;46.25;99559.47;5026069;28;20010;-88
2023/04/17 10:22:18;;;;;;;;;;;;;;;16.84;45.98;99556.19;5036512;28;20545;-89
2023/04/17 10:24:48;;;;;;;;;;;;;;;16.89;47.49;99556.47;5039639;28;19921;-88
2023/04/17 10:27:29;;;;;;;;;;;;;;;16.92;47.46;99551.59;5044158;28;19957;-88
2023/04/17 10:29:58;;;;;;;;;;;;;;;16.97;47.87;99549.19;5044769;28;19927;-89
2023/04/17 10:32:27;;;;;;;;;;;;;;;16.96;46.78;99539.56;5049574;28;19925;-87
2023/04/17 10:34:57;;;;;;;;;;;;;;;16.98;47.51;99534.03;5008547;28;19921;-88
2023/04/17 10:37:43;;;;;;;;;;;;;;;17.06;47.49;99534.78;5041492;28;19964;-86
2023/04/17 10:40:10;;;;;;;;;;;;;;;17.10;46.88;99540.56;5035200;28;19921;-88
2023/04/17 10:42:35;;;;;;;;;;;;;;;17.14;47.30;99536.53;5039560;28;19932;-85
2023/04/17 10:45:04;;;;;;;;;;;;;;;17.23;47.92;99540.72;5023811;28;19921;-85
2023/04/17 10:47:31;;;;;;;;;;;;;;;17.26;47.04;99534.22;5042617;28;20519;-83
2023/04/17 10:49:58;;;;;;;;;;;;;;;17.24;46.58;99530.91;5020208;28;19921;-85
2023/04/17 10:52:39;;;;;;;;;;;;;;;17.24;47.17;99525.56;5028622;28;19952;-84
2023/04/17 10:55:05;;;;;;;;;;;;;;;17.28;48.46;99525.00;5039158;28;20258;-85
2023/04/17 10:57:49;;;;;;;;;;;;;;;17.31;46.98;99523.81;5056357;28;20364;-84
2023/04/17 11:00:15;;;;;;;;;;;;;;;17.34;46.68;99520.75;5054428;28;19921;-84
2023/04/17 11:02:44;;;;;;;;;;;;;;;17.39;46.23;99524.50;5033433;28;19936;-84
2023/04/17 11:05:09;;;;;;;;;;;;;;;17.48;45.90;99518.06;5029112;28;19928;-84
2023/04/17 11:07:35;;;;;;;;;;;;;;;17.50;46.93;99515.19;5023826;28;19921;-84
2023/04/17 11:10:08;;;;;;;;;;;;;;;17.53;45.78;99515.66;5039824;28;20046;-85
2023/04/17 11:12:34;;;;;;;;;;;;;;;17.63;45.80;99506.53;5043328;28;19977;-85
2023/04/17 11:15:03;;;;;;;;;;;;;;;17.70;46.28;99510.13;5041852;28;19994;-85
2023/04/17 11:17:28;;;;;;;;;;;;;;;17.77;46.20;99511.84;5039470;28;19921;-86
2023/04/17 11:19:54;;;;;;;;;;;;;;;17.79;45.60;99503.66;5042123;28;20420;-85
2023/04/17 11:22:20;;;;;;;;;;;;;;;17.86;44.98;99504.53;5037842;28;19928;-84
2023/04/17 11:24:45;;;;;;;;;;;;;;;17.88;44.71;99513.19;5039406;28;20340;-84
2023/04/17 11:27:10;;;;;;;;;;;;;;;17.93;45.56;99508.09;5039176;28;19929;-85
2023/04/17 11:29:36;;;;;;;;;;;;;;;18.00;45.38;99500.97;5038312;28;20386;-85
2023/04/17 11:32:02;;;;;;;;;;;;;;;18.00;45.11;99506.31;5041354;28;20697;-83
2023/04/17 11:34:27;;;;;;;;;;;;;;;18.01;44.84;99505.31;5042603;28;20340;-85
2023/04/17 11:36:57;;;;;;;;;;;;;;;18.14;42.76;99499.25;5061327;22;19924;-73
2023/04/17 11:39:23;;;;;;;;;;;;;;;18.28;42.22;99501.00;5038894;28;19932;-74
2023/04/17 11:41:52;;;;;;;;;;;;;;;18.30;41.68;99497.13;5040668;28;20381;-75
2023/04/17 11:44:19;;;;;;;;;;;;;;;18.37;41.87;99498.00;5033813;28;20444;-75
2023/04/17 11:46:52;;;;;;;;;;;;;;;18.50;42.04;99501.78;5039670;28;19921;-75
2023/04/17 11:49:31;;;;;;;;;;;;;;;18.56;39.23;99495.69;5039089;28;19929;-74
2023/04/17 11:52:00;;;;;;;;;;;;;;;18.65;39.18;99506.03;5035914;28;19976;-74
2023/04/17 11:54:29;;;;;;;;;;;;;;;18.70;38.36;99502.78;5039287;28;20071;-75
2023/04/17 11:57:00;;;;;;;;;;;;;;;18.76;38.43;99502.00;5040997;28;19968;-74
2023/04/17 11:59:32;;;;;;;;;;;;;;;18.83;37.44;99494.84;5036329;28;19936;-76
2023/04/17 12:01:59;;;;;;;;;;;;;;;18.96;35.24;99508.28;5040906;28;19916;-75
2023/04/17 12:04:25;;;;;;;;;;;;;;;19.09;35.10;99513.69;5040610;28;19932;-75
2023/04/17 12:06:50;;;;;;;;;;;;;;;19.22;34.56;99503.06;5032720;28;19916;-75
2023/04/17 12:09:20;;;;;;;;;;;;;;;19.28;35.35;99506.78;5036175;28;19930;-74
2023/04/17 12:11:46;;;;;;;;;;;;;;;19.40;35.57;99507.03;5030103;28;19986;-75
2023/04/17 12:14:11;;;;;;;;;;;;;;;19.44;35.15;99506.41;5030919;28;20457;-75
2023/04/17 12:16:37;;;;;;;;;;;;;;;19.52;34.87;99513.47;5039414;28;20371;-77
2023/04/17 12:19:02;;;;;;;;;;;;;;;19.60;33.67;99510.63;5036100;28;19921;-76
2023/04/17 12:21:28;;;;;;;;;;;;;;;19.64;32.25;99503.84;5038647;28;19920;-75
2023/04/17 12:23:53;;;;;;;;;;;;;;;19.75;32.42;99513.94;5039243;28;20435;-77
2023/04/17 12:26:19;;;;;;;;;;;;;;;19.86;32.41;99508.00;5005258;28;20105;-75
2023/04/17 12:28:44;;;;;;;;;;;;;;;19.95;31.46;99498.75;5041804;28;19991;-78
2023/04/17 12:31:09;;;;;;;;;;;;;;;20.02;30.71;99494.22;5038864;28;19921;-76
2023/04/17 12:33:35;;;;;;;;;;;;;;;20.14;31.20;99489.09;5039673;28;19929;-77
2023/04/17 12:36:01;;;;;;;;;;;;;;;20.11;30.54;99496.69;5041974;28;19921;-76
2023/04/17 12:38:26;;;;;;;;;;;;;;;20.07;29.70;99490.09;5021595;28;20341;-78
2023/04/17 12:40:51;;;;;;;;;;;;;;;20.17;30.80;99495.88;5038841;28;19921;-76
2023/04/17 12:43:17;;;;;;;;;;;;;;;20.32;30.32;99488.50;5038040;28;19940;-78
2023/04/17 12:45:44;;;;;;;;;;;;;;;20.47;29.38;99485.59;5036424;28;19948;-80